Time;durP1;ratioP1;P1;durP2;ratioP2;P2;SDS_P1;SDS_P2;PMS_P1;PMS_P2;Temp;Humidity;BMP_temperature;BMP_pressure;BME280_temperature;BME280_humidity;BME280_pressure;Samples;Min_cycle;Max_cycle;Signal;HPM_P1;HPM_P2
2024/01/17 00:01:55;;;;;;;19.35;7.00;;;;;;;;;;5077376;28;20040;-71
2024/01/17 00:04:22;;;;;;;13.80;6.60;;;;;;;;;;5094793;28;20094;-75
2024/01/17 00:06:48;;;;;;;18.65;6.97;;;;;;;;;;5095252;28;20048;-73
2024/01/17 00:09:15;;;;;;;17.85;7.03;;;;;;;;;;5095341;28;20044;-72
2024/01/17 00:11:42;;;;;;;18.55;6.68;;;;;;;;;;5061037;28;20476;-73
2024/01/17 00:14:08;;;;;;;15.98;6.63;;;;;;;;;;5061486;28;20051;-72
2024/01/17 00:16:34;;;;;;;14.57;6.55;;;;;;;;;;5096037;28;20052;-72
2024/01/17 00:19:00;;;;;;;15.80;7.50;;;;;;;;;;5060716;28;20054;-72
2024/01/17 00:21:27;;;;;;;18.60;6.85;;;;;;;;;;5095029;28;20044;-73
2024/01/17 00:23:54;;;;;;;24.17;7.97;;;;;;;;;;5076886;28;20051;-71
2024/01/17 00:26:20;;;;;;;25.20;7.80;;;;;;;;;;5095035;28;20048;-73
2024/01/17 00:28:46;;;;;;;20.27;7.75;;;;;;;;;;5082722;28;20413;-73
2024/01/17 00:31:12;;;;;;;22.33;8.10;;;;;;;;;;5098236;28;20063;-73
2024/01/17 00:33:38;;;;;;;17.38;6.15;;;;;;;;;;5115764;28;20130;-72
2024/01/17 00:36:04;;;;;;;18.52;7.10;;;;;;;;;;5115070;28;20040;-71
2024/01/17 00:38:31;;;;;;;15.45;6.57;;;;;;;;;;5115310;28;20050;-72
2024/01/17 00:40:57;;;;;;;17.23;7.13;;;;;;;;;;5115011;28;20410;-71
2024/01/17 00:43:23;;;;;;;17.20;8.15;;;;;;;;;;5115050;28;20453;-72
2024/01/17 00:45:49;;;;;;;24.42;9.65;;;;;;;;;;5114912;28;20055;-72
2024/01/17 00:48:15;;;;;;;17.92;8.02;;;;;;;;;;5097410;28;20079;-72
2024/01/17 00:50:42;;;;;;;26.02;8.90;;;;;;;;;;5097323;28;20134;-72
2024/01/17 00:53:08;;;;;;;18.75;8.45;;;;;;;;;;5115045;28;20047;-72
2024/01/17 00:55:34;;;;;;;16.77;7.38;;;;;;;;;;5114789;28;20044;-73
2024/01/17 00:58:00;;;;;;;21.92;8.00;;;;;;;;;;5114688;28;20043;-71
2024/01/17 01:00:26;;;;;;;18.13;7.78;;;;;;;;;;5114695;28;20051;-73
2024/01/17 01:02:52;;;;;;;22.02;8.38;;;;;;;;;;5097409;28;20044;-74
2024/01/17 01:05:18;;;;;;;23.38;8.95;;;;;;;;;;5097408;28;20062;-72
2024/01/17 01:07:47;;;;;;;21.52;9.25;;;;;;;;;;5096292;28;20055;-73
2024/01/17 01:10:13;;;;;;;13.98;6.60;;;;;;;;;;5096455;28;20059;-73
2024/01/17 01:12:39;;;;;;;17.55;7.93;;;;;;;;;;5096356;28;20047;-74
2024/01/17 01:15:06;;;;;;;23.55;8.43;;;;;;;;;;5115014;28;20050;-72
2024/01/17 01:17:32;;;;;;;27.20;8.40;;;;;;;;;;5114335;28;20048;-72
2024/01/17 01:19:58;;;;;;;21.15;8.45;;;;;;;;;;5114363;28;20130;-72
2024/01/17 01:22:24;;;;;;;26.67;9.30;;;;;;;;;;5096282;28;20051;-72
2024/01/17 01:24:50;;;;;;;22.35;8.57;;;;;;;;;;5114368;28;20112;-72
2024/01/17 01:27:16;;;;;;;22.73;9.80;;;;;;;;;;5096193;28;20083;-72
2024/01/17 01:29:42;;;;;;;23.13;9.30;;;;;;;;;;5097102;28;20134;-73
2024/01/17 01:32:09;;;;;;;26.70;9.43;;;;;;;;;;5098558;28;20055;-74
2024/01/17 01:34:35;;;;;;;22.15;9.73;;;;;;;;;;5115534;28;20097;-74
2024/01/17 01:37:01;;;;;;;28.00;9.48;;;;;;;;;;5115432;28;20079;-74
2024/01/17 01:39:28;;;;;;;22.73;8.68;;;;;;;;;;5080663;28;20043;-73
2024/01/17 01:41:54;;;;;;;28.50;10.70;;;;;;;;;;5114585;28;20083;-73
2024/01/17 01:44:20;;;;;;;25.02;10.52;;;;;;;;;;5080148;28;20336;-76
2024/01/17 01:46:47;;;;;;;23.42;10.30;;;;;;;;;;5096574;28;20079;-74
2024/01/17 01:49:15;;;;;;;21.48;9.55;;;;;;;;;;5114013;28;20055;-74
2024/01/17 01:51:44;;;;;;;26.75;11.68;;;;;;;;;;5095775;28;20048;-73
2024/01/17 01:54:11;;;;;;;25.67;12.05;;;;;;;;;;5079440;28;20052;-73
2024/01/17 01:56:38;;;;;;;28.38;12.32;;;;;;;;;;5096028;28;20105;-73
2024/01/17 01:59:04;;;;;;;28.08;11.70;;;;;;;;;;5079289;28;20058;-73
2024/01/17 02:01:30;;;;;;;26.23;12.05;;;;;;;;;;5113703;28;20139;-73
2024/01/17 02:03:57;;;;;;;26.33;11.10;;;;;;;;;;5114321;28;20039;-80
2024/01/17 02:06:23;;;;;;;25.02;11.43;;;;;;;;;;5118061;28;20044;-79
2024/01/17 02:08:50;;;;;;;28.27;12.07;;;;;;;;;;5117766;28;20040;-82
2024/01/17 02:11:18;;;;;;;26.50;12.20;;;;;;;;;;5117411;28;20047;-79
2024/01/17 02:13:44;;;;;;;25.13;12.80;;;;;;;;;;5120824;28;20051;-81
2024/01/17 02:16:10;;;;;;;28.17;11.27;;;;;;;;;;5118099;28;20054;-81
2024/01/17 02:18:36;;;;;;;30.25;11.45;;;;;;;;;;5118178;28;20124;-81
2024/01/17 02:21:03;;;;;;;28.33;12.40;;;;;;;;;;5101556;28;20040;-81
2024/01/17 02:23:29;;;;;;;25.53;12.30;;;;;;;;;;5119579;28;20403;-82
2024/01/17 02:25:56;;;;;;;28.70;12.63;;;;;;;;;;5119002;28;20047;-80
2024/01/17 02:28:22;;;;;;;26.80;11.95;;;;;;;;;;5122998;28;20127;-84
2024/01/17 02:30:48;;;;;;;31.55;13.52;;;;;;;;;;5103408;28;20514;-80
2024/01/17 02:33:15;;;;;;;34.97;13.52;;;;;;;;;;5103863;28;20108;-81
2024/01/17 02:35:41;;;;;;;34.38;13.82;;;;;;;;;;5105736;28;20100;-83
2024/01/17 02:38:07;;;;;;;29.63;13.68;;;;;;;;;;5121070;28;20047;-81
2024/01/17 02:40:33;;;;;;;27.98;10.63;;;;;;;;;;5103408;28;20071;-83
2024/01/17 02:42:59;;;;;;;24.63;11.88;;;;;;;;;;5123917;28;20043;-81
2024/01/17 02:45:25;;;;;;;30.08;12.30;;;;;;;;;;5123516;28;20122;-82
2024/01/17 02:47:51;;;;;;;26.52;11.65;;;;;;;;;;5104428;28;20051;-82
2024/01/17 02:50:17;;;;;;;29.40;11.70;;;;;;;;;;5123147;28;20134;-80
2024/01/17 02:52:44;;;;;;;23.45;12.07;;;;;;;;;;5125011;28;20065;-83
2024/01/17 02:55:11;;;;;;;29.00;12.37;;;;;;;;;;5122878;28;20054;-83
2024/01/17 02:57:37;;;;;;;;;;;;;;;;;;5125839;28;20051;-82
2024/01/17 03:00:04;;;;;;;27.45;12.52;;;;;;;;;;5125298;28;19931;-82
2024/01/17 03:02:30;;;;;;;26.13;12.70;;;;;;;;;;5126222;28;20086;-82
2024/01/17 03:04:56;;;;;;;29.70;13.15;;;;;;;;;;5105750;28;20051;-82
2024/01/17 03:07:22;;;;;;;27.15;11.70;;;;;;;;;;5125828;28;20043;-81
2024/01/17 03:09:48;;;;;;;33.08;12.85;;;;;;;;;;5110702;28;20046;-82
2024/01/17 03:12:14;;;;;;;31.27;12.43;;;;;;;;;;5109834;28;20039;-83
2024/01/17 03:14:40;;;;;;;24.30;10.90;;;;;;;;;;5108976;28;20040;-82
2024/01/17 03:17:06;;;;;;;27.55;12.48;;;;;;;;;;5126647;28;20039;-81
2024/01/17 03:19:32;;;;;;;25.90;11.82;;;;;;;;;;5125137;28;20047;-81
2024/01/17 03:21:58;;;;;;;28.38;12.25;;;;;;;;;;5126183;28;20044;-79
2024/01/17 03:24:25;;;;;;;24.48;10.65;;;;;;;;;;5105403;28;20040;-81
2024/01/17 03:26:51;;;;;;;27.45;12.70;;;;;;;;;;5090162;28;20051;-82
2024/01/17 03:29:17;;;;;;;25.50;11.75;;;;;;;;;;5090297;28;20059;-80
2024/01/17 03:31:43;;;;;;;26.95;11.45;;;;;;;;;;5124036;28;20075;-82
2024/01/17 03:34:09;;;;;;;27.13;12.77;;;;;;;;;;5126727;28;20039;-81
2024/01/17 03:36:35;;;;;;;27.58;11.48;;;;;;;;;;5107483;28;20388;-81
2024/01/17 03:39:01;;;;;;;25.13;11.38;;;;;;;;;;5123860;28;20073;-81
2024/01/17 03:41:28;;;;;;;20.20;8.18;;;;;;;;;;5107848;28;20128;-80
2024/01/17 03:43:54;;;;;;;23.58;11.43;;;;;;;;;;5128716;28;20375;-80
2024/01/17 03:46:20;;;;;;;28.63;11.13;;;;;;;;;;5108978;28;20050;-81
2024/01/17 03:48:46;;;;;;;23.67;10.38;;;;;;;;;;5108882;28;20048;-80
2024/01/17 03:51:12;;;;;;;20.52;10.43;;;;;;;;;;5127097;28;20181;-81
2024/01/17 03:53:38;;;;;;;25.55;12.65;;;;;;;;;;5125073;28;20127;-83
2024/01/17 03:56:04;;;;;;;23.77;11.38;;;;;;;;;;5107782;28;20047;-82
2024/01/17 03:58:30;;;;;;;25.73;11.95;;;;;;;;;;5125807;28;20141;-81
2024/01/17 04:00:56;;;;;;;23.48;11.23;;;;;;;;;;5127727;28;20079;-81
2024/01/17 04:03:22;;;;;;;26.33;12.32;;;;;;;;;;5130425;28;20076;-79
2024/01/17 04:05:48;;;;;;;24.80;10.73;;;;;;;;;;5114371;28;20050;-80
2024/01/17 04:08:15;;;;;;;28.80;10.90;;;;;;;;;;5093608;28;20047;-81
2024/01/17 04:10:41;;;;;;;22.25;9.80;;;;;;;;;;5104495;28;20062;-81
2024/01/17 04:13:07;;;;;;;22.88;10.95;;;;;;;;;;5105750;28;20075;-80
2024/01/17 04:15:33;;;;;;;22.65;10.23;;;;;;;;;;5124409;28;20069;-79
2024/01/17 04:17:59;;;;;;;21.27;10.38;;;;;;;;;;5126985;28;20130;-80
2024/01/17 04:20:25;;;;;;;22.45;10.18;;;;;;;;;;5087927;28;20055;-78
2024/01/17 04:22:51;;;;;;;23.13;10.77;;;;;;;;;;5110027;28;20057;-81
2024/01/17 04:25:17;;;;;;;22.52;10.38;;;;;;;;;;5126551;28;20109;-82
2024/01/17 04:27:43;;;;;;;24.08;10.88;;;;;;;;;;5127133;28;20086;-80
2024/01/17 04:30:11;;;;;;;20.55;9.88;;;;;;;;;;5109178;28;20051;-80
2024/01/17 04:32:38;;;;;;;24.42;10.65;;;;;;;;;;5092846;28;20107;-79
2024/01/17 04:35:05;;;;;;;25.17;10.05;;;;;;;;;;5110222;28;20180;-82
2024/01/17 04:37:31;;;;;;;22.23;9.65;;;;;;;;;;5129211;28;20047;-81
2024/01/17 04:39:57;;;;;;;18.88;9.98;;;;;;;;;;5124304;28;20063;-78
2024/01/17 04:42:24;;;;;;;21.88;10.38;;;;;;;;;;5123413;28;20062;-76
2024/01/17 04:44:50;;;;;;;21.35;9.73;;;;;;;;;;5107531;28;20047;-81
2024/01/17 04:47:16;;;;;;;23.88;11.40;;;;;;;;;;5124669;28;20050;-80
2024/01/17 04:49:42;;;;;;;27.03;9.80;;;;;;;;;;5102723;28;20052;-80
2024/01/17 04:52:15;;;;;;;19.60;9.63;;;;;;;;;;5121169;28;20352;-81
2024/01/17 04:54:42;;;;;;;25.13;9.60;;;;;;;;;;5102412;28;20059;-82
2024/01/17 04:57:08;;;;;;;24.75;10.27;;;;;;;;;;5102306;28;20040;-81
2024/01/17 04:59:34;;;;;;;16.15;6.75;;;;;;;;;;5119148;28;20044;-82
2024/01/17 05:02:00;;;;;;;23.75;10.07;;;;;;;;;;5102265;28;20127;-80
2024/01/17 05:04:27;;;;;;;19.13;8.57;;;;;;;;;;5102624;28;20126;-75
2024/01/17 05:06:53;;;;;;;19.63;10.30;;;;;;;;;;5119532;28;20383;-80
2024/01/17 05:09:19;;;;;;;18.10;7.60;;;;;;;;;;5101474;28;20055;-81
2024/01/17 05:11:46;;;;;;;19.58;8.77;;;;;;;;;;5117351;28;20063;-81
2024/01/17 05:14:14;;;;;;;17.63;8.40;;;;;;;;;;5117033;28;20050;-81
2024/01/17 05:16:40;;;;;;;23.13;9.38;;;;;;;;;;5119313;28;20395;-81
2024/01/17 05:19:06;;;;;;;17.58;8.40;;;;;;;;;;5100390;28;20073;-82
2024/01/17 05:21:32;;;;;;;19.45;9.02;;;;;;;;;;5101081;28;20456;-81
2024/01/17 05:23:59;;;;;;;21.67;9.95;;;;;;;;;;5081682;28;20047;-82
2024/01/17 05:26:25;;;;;;;25.45;12.73;;;;;;;;;;5118162;28;20048;-83
2024/01/17 05:28:51;;;;;;;25.30;10.25;;;;;;;;;;5097487;28;20060;-80
2024/01/17 05:31:17;;;;;;;21.47;8.60;;;;;;;;;;5118029;28;20047;-80
2024/01/17 05:33:44;;;;;;;23.70;9.25;;;;;;;;;;5115948;28;20321;-81
2024/01/17 05:36:11;;;;;;;17.13;7.25;;;;;;;;;;5115988;28;20105;-81
2024/01/17 05:38:37;;;;;;;28.07;9.80;;;;;;;;;;5115941;28;20047;-81
2024/01/17 05:41:03;;;;;;;23.60;9.30;;;;;;;;;;5082333;28;20354;-81
2024/01/17 05:43:30;;;;;;;19.45;9.05;;;;;;;;;;5099903;28;20054;-79
2024/01/17 05:45:59;;;;;;;20.73;9.13;;;;;;;;;;5103718;28;20051;-79
2024/01/17 05:48:26;;;;;;;22.13;9.48;;;;;;;;;;5099616;28;20050;-81
2024/01/17 05:50:52;;;;;;;25.40;9.05;;;;;;;;;;5099306;28;20048;-81
2024/01/17 05:53:18;;;;;;;23.20;9.93;;;;;;;;;;5084151;28;20058;-81
2024/01/17 05:55:44;;;;;;;19.85;9.30;;;;;;;;;;5097505;28;20039;-79
2024/01/17 05:58:10;;;;;;;18.80;8.13;;;;;;;;;;5116246;28;20043;-80
2024/01/17 06:00:38;;;;;;;21.35;10.60;;;;;;;;;;5114604;28;20100;-80
2024/01/17 06:03:07;;;;;;;26.30;9.98;;;;;;;;;;5099640;28;20039;-80
2024/01/17 06:05:33;;;;;;;20.73;9.63;;;;;;;;;;5087390;28;20120;-81
2024/01/17 06:07:59;;;;;;;25.45;9.45;;;;;;;;;;5101662;28;20052;-83
2024/01/17 06:10:28;;;;;;;26.73;9.65;;;;;;;;;;5119810;28;20047;-80
2024/01/17 06:12:54;;;;;;;18.13;9.38;;;;;;;;;;5119136;28;20463;-81
2024/01/17 06:15:20;;;;;;;20.80;9.32;;;;;;;;;;5084341;28;20130;-81
2024/01/17 06:17:46;;;;;;;23.90;9.48;;;;;;;;;;5084363;28;20536;-80
2024/01/17 06:20:12;;;;;;;23.75;9.23;;;;;;;;;;5102050;28;20109;-82
2024/01/17 06:22:39;;;;;;;27.20;9.55;;;;;;;;;;5120215;28;20043;-78
2024/01/17 06:25:08;;;;;;;23.02;10.18;;;;;;;;;;5105801;28;20051;-81
2024/01/17 06:27:34;;;;;;;21.75;9.50;;;;;;;;;;5125869;28;20043;-81
2024/01/17 06:30:01;;;;;;;20.10;9.43;;;;;;;;;;5103693;28;20044;-81
2024/01/17 06:32:27;;;;;;;24.67;10.07;;;;;;;;;;5103155;28;20507;-82
2024/01/17 06:34:53;;;;;;;21.55;8.95;;;;;;;;;;5121177;28;20048;-81
2024/01/17 06:37:19;;;;;;;22.17;9.15;;;;;;;;;;5119055;28;20141;-81
2024/01/17 06:39:45;;;;;;;22.30;8.68;;;;;;;;;;5106175;28;20047;-81
2024/01/17 06:42:11;;;;;;;20.27;9.73;;;;;;;;;;5105163;28;20504;-82
2024/01/17 06:44:37;;;;;;;24.92;9.23;;;;;;;;;;5107603;28;20050;-81
2024/01/17 06:47:04;;;;;;;30.20;9.73;;;;;;;;;;5103126;28;20082;-82
2024/01/17 06:49:30;;;;;;;21.00;8.88;;;;;;;;;;5124499;28;20044;-80
2024/01/17 06:51:56;;;;;;;24.38;9.40;;;;;;;;;;5108240;28;20120;-80
2024/01/17 06:54:23;;;;;;;24.73;9.75;;;;;;;;;;5090163;28;20052;-78
2024/01/17 06:56:49;;;;;;;22.02;9.95;;;;;;;;;;5093644;28;20058;-80
2024/01/17 06:59:16;;;;;;;30.83;8.68;;;;;;;;;;5110809;28;20390;-80
2024/01/17 07:01:42;;;;;;;23.13;9.15;;;;;;;;;;5120790;28;20048;-81
2024/01/17 07:04:08;;;;;;;22.42;9.00;;;;;;;;;;5103537;28;20102;-80
2024/01/17 07:06:36;;;;;;;20.38;8.45;;;;;;;;;;5103138;28;20039;-79
2024/01/17 07:09:02;;;;;;;25.55;8.93;;;;;;;;;;5121680;28;20463;-80
2024/01/17 07:11:28;;;;;;;21.45;9.40;;;;;;;;;;5125476;28;20051;-81
2024/01/17 07:13:54;;;;;;;18.75;8.52;;;;;;;;;;5105056;28;20043;-81
2024/01/17 07:16:21;;;;;;;20.98;9.18;;;;;;;;;;5106993;28;20073;-81
2024/01/17 07:18:47;;;;;;;;;;;;;;;;;;5089982;28;20055;-80
2024/01/17 07:21:13;;;;;;;19.67;7.88;;;;;;;;;;5137605;27;19983;-79
2024/01/17 07:23:40;;;;;;;22.08;9.27;;;;;;;;;;5118401;28;20046;-79
2024/01/17 07:26:06;;;;;;;21.65;9.75;;;;;;;;;;5088552;28;20097;-81
2024/01/17 07:28:32;;;;;;;21.40;9.40;;;;;;;;;;5120301;28;20059;-79
2024/01/17 07:30:59;;;;;;;21.23;9.00;;;;;;;;;;5123470;28;20353;-81
2024/01/17 07:33:25;;;;;;;18.25;9.02;;;;;;;;;;5102108;28;20047;-81
2024/01/17 07:35:51;;;;;;;25.23;8.88;;;;;;;;;;5102713;28;20043;-80
2024/01/17 07:38:17;;;;;;;23.70;8.32;;;;;;;;;;5120134;28;20039;-80
2024/01/17 07:40:44;;;;;;;23.75;9.25;;;;;;;;;;5099805;28;20080;-80
2024/01/17 07:43:10;;;;;;;21.73;9.13;;;;;;;;;;5100571;28;20083;-80
2024/01/17 07:45:36;;;;;;;25.70;9.80;;;;;;;;;;5100397;28;20055;-80
2024/01/17 07:48:02;;;;;;;25.98;9.70;;;;;;;;;;5121848;28;20052;-79
2024/01/17 07:50:28;;;;;;;23.63;9.20;;;;;;;;;;5118388;28;20047;-80
2024/01/17 07:52:55;;;;;;;23.20;8.95;;;;;;;;;;5105265;28;20055;-80
2024/01/17 07:55:21;;;;;;;23.07;9.43;;;;;;;;;;5125647;28;20048;-81
2024/01/17 07:57:47;;;;;;;20.75;8.60;;;;;;;;;;5104832;28;20293;-81
2024/01/17 08:00:13;;;;;;;20.42;8.27;;;;;;;;;;5104184;28;20099;-80
2024/01/17 08:02:40;;;;;;;19.47;8.63;;;;;;;;;;5105796;28;20471;-81
2024/01/17 08:05:06;;;;;;;19.50;9.13;;;;;;;;;;5126112;28;20284;-80
2024/01/17 08:07:33;;;;;;;20.63;8.57;;;;;;;;;;5105028;28;20130;-80
2024/01/17 08:09:59;;;;;;;24.35;8.95;;;;;;;;;;5085415;28;20048;-79
2024/01/17 08:12:25;;;;;;;20.75;8.82;;;;;;;;;;5107409;28;20051;-79
2024/01/17 08:14:51;;;;;;;18.35;7.85;;;;;;;;;;5102616;28;20468;-81
2024/01/17 08:17:17;;;;;;;20.75;8.25;;;;;;;;;;5108662;28;20051;-78
2024/01/17 08:19:43;;;;;;;20.17;8.27;;;;;;;;;;5105210;28;20055;-82
2024/01/17 08:22:10;;;;;;;18.38;8.77;;;;;;;;;;5123022;28;20073;-81
2024/01/17 08:24:36;;;;;;;22.88;9.13;;;;;;;;;;5117586;28;20418;-79
2024/01/17 08:27:03;;;;;;;23.85;10.10;;;;;;;;;;5116882;28;20117;-79
2024/01/17 08:29:29;;;;;;;21.02;9.00;;;;;;;;;;5083670;28;20052;-78
2024/01/17 08:31:55;;;;;;;21.08;8.13;;;;;;;;;;5116068;28;20130;-78
2024/01/17 08:34:22;;;;;;;20.67;9.80;;;;;;;;;;5091860;28;20070;-80
2024/01/17 08:36:48;;;;;;;21.58;8.73;;;;;;;;;;5090410;28;20404;-80
2024/01/17 08:39:17;;;;;;;22.67;8.90;;;;;;;;;;5087931;28;20499;-80
2024/01/17 08:41:45;;;;;;;23.05;8.60;;;;;;;;;;5123544;28;20197;-80
2024/01/17 08:44:12;;;;;;;20.48;8.85;;;;;;;;;;5111667;28;20036;-80
2024/01/17 08:46:45;;;;;;;20.80;8.50;;;;;;;;;;5128950;28;20044;-79
2024/01/17 08:49:11;;;;;;;20.80;9.23;;;;;;;;;;5126339;28;20051;-79
2024/01/17 08:51:37;;;;;;;23.90;9.13;;;;;;;;;;5112014;28;20077;-80
2024/01/17 08:54:04;;;;;;;21.42;7.85;;;;;;;;;;5111887;28;20047;-78
2024/01/17 08:56:31;;;;;;;19.23;8.70;;;;;;;;;;5129486;28;20048;-80
2024/01/17 08:58:57;;;;;;;19.98;8.70;;;;;;;;;;5124788;28;20043;-80
2024/01/17 09:01:23;;;;;;;18.02;8.23;;;;;;;;;;5105957;28;20047;-82
2024/01/17 09:03:49;;;;;;;22.75;8.30;;;;;;;;;;5108132;28;20047;-80
2024/01/17 09:06:15;;;;;;;20.35;8.20;;;;;;;;;;5104230;28;20363;-82
2024/01/17 09:08:41;;;;;;;17.85;7.78;;;;;;;;;;5107343;28;20051;-81
2024/01/17 09:11:08;;;;;;;18.73;8.32;;;;;;;;;;5108322;28;20039;-80
2024/01/17 09:13:34;;;;;;;18.33;8.27;;;;;;;;;;5095245;28;20086;-81
2024/01/17 09:16:00;;;;;;;20.50;7.93;;;;;;;;;;5109867;28;20051;-79
2024/01/17 09:18:26;;;;;;;23.88;9.35;;;;;;;;;;5108286;28;20067;-81
2024/01/17 09:20:52;;;;;;;18.00;7.55;;;;;;;;;;5095956;28;20044;-80
2024/01/17 09:23:19;;;;;;;19.38;8.35;;;;;;;;;;5125615;28;20080;-81
2024/01/17 09:25:45;;;;;;;18.13;7.68;;;;;;;;;;5127709;28;20044;-80
2024/01/17 09:28:11;;;;;;;20.02;7.45;;;;;;;;;;5129958;28;20087;-80
2024/01/17 09:30:38;;;;;;;18.75;8.18;;;;;;;;;;5112841;28;20081;-79
2024/01/17 09:33:05;;;;;;;21.15;8.65;;;;;;;;;;5126755;28;20044;-81
2024/01/17 09:35:34;;;;;;;18.67;8.40;;;;;;;;;;5092826;28;20058;-79
2024/01/17 09:38:00;;;;;;;22.25;8.13;;;;;;;;;;5106912;28;20372;-79
2024/01/17 09:40:27;;;;;;;21.05;7.78;;;;;;;;;;5123275;28;20134;-81
2024/01/17 09:42:53;;;;;;;19.23;8.45;;;;;;;;;;5125408;28;20096;-80
2024/01/17 09:45:21;;;;;;;20.70;8.15;;;;;;;;;;5128698;28;20059;-81
2024/01/17 09:47:49;;;;;;;17.75;7.63;;;;;;;;;;5122972;28;20054;-79
2024/01/17 09:50:15;;;;;;;16.55;7.38;;;;;;;;;;5106409;28;20079;-80
2024/01/17 09:52:42;;;;;;;20.52;7.45;;;;;;;;;;5126085;28;20047;-80
2024/01/17 09:55:09;;;;;;;19.05;7.15;;;;;;;;;;5122897;28;20055;-78
2024/01/17 09:57:35;;;;;;;;;;;;;;;;;;5124953;28;20039;-80
2024/01/17 10:00:07;;;;;;;18.42;8.10;;;;;;;;;;5121965;28;19920;-82
2024/01/17 10:02:34;;;;;;;17.70;7.85;;;;;;;;;;5122524;28;20051;-80
2024/01/17 10:05:00;;;;;;;;;;;;;;;;;;5123772;28;20078;-80
2024/01/17 10:07:26;;;;;;;17.73;7.28;;;;;;;;;;5119380;28;19919;-78
2024/01/17 10:09:53;;;;;;;16.98;7.35;;;;;;;;;;5100814;28;20044;-81
2024/01/17 10:12:19;;;;;;;20.23;8.00;;;;;;;;;;5126942;28;20047;-79
2024/01/17 10:14:46;;;;;;;26.02;7.88;;;;;;;;;;5084476;28;20058;-78
2024/01/17 10:17:12;;;;;;;15.98;6.97;;;;;;;;;;5120870;28;20044;-73
2024/01/17 10:19:39;;;;;;;18.98;7.22;;;;;;;;;;5088462;28;20047;-79
2024/01/17 10:22:09;;;;;;;18.17;7.00;;;;;;;;;;5123435;28;20052;-79
2024/01/17 10:24:36;;;;;;;20.88;7.72;;;;;;;;;;5103239;28;20455;-78
2024/01/17 10:27:02;;;;;;;15.95;7.53;;;;;;;;;;5122093;28;20054;-80
2024/01/17 10:29:30;;;;;;;17.23;7.13;;;;;;;;;;5118124;28;20414;-79
2024/01/17 10:31:59;;;;;;;17.80;7.40;;;;;;;;;;5116616;28;20498;-80
2024/01/17 10:34:32;;;;;;;18.02;7.53;;;;;;;;;;5117623;28;20043;-81
2024/01/17 10:36:58;;;;;;;16.00;7.03;;;;;;;;;;5098785;28;20096;-78
2024/01/17 10:39:28;;;;;;;20.05;7.97;;;;;;;;;;5100787;28;20051;-81
2024/01/17 10:41:56;;;;;;;18.00;7.38;;;;;;;;;;5098331;28;20052;-81
2024/01/17 10:44:22;;;;;;;16.55;8.05;;;;;;;;;;5117360;28;20562;-79
2024/01/17 10:46:50;;;;;;;22.57;8.27;;;;;;;;;;5116087;28;20054;-81
2024/01/17 10:49:16;;;;;;;19.30;7.38;;;;;;;;;;5117879;28;20281;-81
2024/01/17 10:51:46;;;;;;;19.98;7.95;;;;;;;;;;5103958;28;20154;-81
2024/01/17 10:54:17;;;;;;;21.17;7.75;;;;;;;;;;5118888;28;20044;-82
2024/01/17 10:56:46;;;;;;;15.98;7.45;;;;;;;;;;5101285;28;20383;-81
2024/01/17 10:59:14;;;;;;;23.27;7.72;;;;;;;;;;5104123;28;20046;-81
2024/01/17 11:01:44;;;;;;;16.92;7.47;;;;;;;;;;5100613;28;20059;-81
2024/01/17 11:04:34;;;;;;;16.98;7.82;;;;;;;;;;5120066;28;20043;-78
2024/01/17 11:07:01;;;;;;;18.42;7.18;;;;;;;;;;5100167;28;20047;-81
2024/01/17 11:09:28;;;;;;;21.23;7.90;;;;;;;;;;5118023;28;20127;-81
2024/01/17 11:11:57;;;;;;;16.27;7.32;;;;;;;;;;5099722;28;20066;-80
2024/01/17 11:14:23;;;;;;;16.20;7.07;;;;;;;;;;5117282;28;20047;-78
2024/01/17 11:16:51;;;;;;;15.48;7.28;;;;;;;;;;5117807;28;20048;-80
2024/01/17 11:19:19;;;;;;;14.43;6.88;;;;;;;;;;5118419;28;20043;-79
2024/01/17 11:21:46;;;;;;;22.52;8.65;;;;;;;;;;5117688;28;20039;-80
2024/01/17 11:24:15;;;;;;;21.20;7.40;;;;;;;;;;5106295;28;20040;-80
2024/01/17 11:27:04;;;;;;;18.95;7.22;;;;;;;;;;5109133;28;20059;-81
2024/01/17 11:29:49;;;;;;;16.13;7.40;;;;;;;;;;5084455;28;20093;-80
2024/01/17 11:32:28;;;;;;;17.63;7.47;;;;;;;;;;5117686;28;20047;-80
2024/01/17 11:34:54;;;;;;;16.17;6.88;;;;;;;;;;5117292;28;20047;-81
2024/01/17 11:37:30;;;;;;;15.70;7.53;;;;;;;;;;5118692;28;20134;-80
2024/01/17 11:39:56;;;;;;;17.58;7.45;;;;;;;;;;5116863;28;20487;-80
2024/01/17 11:42:23;;;;;;;18.77;8.40;;;;;;;;;;5098749;28;20039;-80
2024/01/17 11:44:50;;;;;;;17.70;7.63;;;;;;;;;;5098385;28;20288;-77
2024/01/17 11:47:20;;;;;;;16.55;7.30;;;;;;;;;;5098143;28;20040;-79
2024/01/17 11:49:47;;;;;;;16.08;7.47;;;;;;;;;;5098467;28;20051;-79
2024/01/17 11:52:30;;;;;;;15.85;7.65;;;;;;;;;;5116116;28;20055;-79
2024/01/17 11:54:56;;;;;;;19.17;7.90;;;;;;;;;;5098409;28;20188;-79
2024/01/17 11:57:25;;;;;;;16.45;7.50;;;;;;;;;;5098772;28;20043;-81
2024/01/17 12:00:07;;;;;;;19.17;7.85;;;;;;;;;;5115461;28;20457;-80
2024/01/17 12:02:37;;;;;;;18.88;7.80;;;;;;;;;;5080744;28;20043;-80
2024/01/17 12:05:05;;;;;;;17.13;7.97;;;;;;;;;;5097854;28;20075;-79
2024/01/17 12:07:31;;;;;;;15.70;7.05;;;;;;;;;;5116034;28;20051;-81
2024/01/17 12:09:57;;;;;;;17.92;7.68;;;;;;;;;;5097584;28;20047;-80
2024/01/17 12:12:24;;;;;;;17.27;7.72;;;;;;;;;;5097572;28;20383;-81
2024/01/17 12:14:50;;;;;;;16.73;7.50;;;;;;;;;;5082416;28;20057;-81
2024/01/17 12:17:16;;;;;;;15.88;7.70;;;;;;;;;;5097415;28;20040;-80
2024/01/17 12:19:43;;;;;;;15.82;7.47;;;;;;;;;;5080751;28;20559;-80
2024/01/17 12:22:09;;;;;;;15.40;6.95;;;;;;;;;;5097140;28;20044;-79
2024/01/17 12:24:37;;;;;;;19.15;7.97;;;;;;;;;;5097247;28;20043;-79
2024/01/17 12:27:08;;;;;;;17.65;7.78;;;;;;;;;;5079998;28;20048;-79
2024/01/17 12:29:38;;;;;;;20.50;7.78;;;;;;;;;;5114927;28;20061;-81
2024/01/17 12:32:04;;;;;;;19.20;8.80;;;;;;;;;;5096986;28;20159;-80
2024/01/17 12:34:30;;;;;;;18.50;7.40;;;;;;;;;;5097546;28;20159;-81
2024/01/17 12:36:56;;;;;;;19.10;8.35;;;;;;;;;;5080169;28;20100;-80
2024/01/17 12:39:22;;;;;;;16.30;7.60;;;;;;;;;;5097405;28;20352;-81
2024/01/17 12:41:54;;;;;;;16.73;7.70;;;;;;;;;;5096532;28;20036;-81
2024/01/17 12:44:20;;;;;;;19.40;8.35;;;;;;;;;;5114946;28;20047;-80
2024/01/17 12:46:46;;;;;;;17.67;7.93;;;;;;;;;;5114911;28;20090;-80
2024/01/17 12:49:16;;;;;;;19.77;8.85;;;;;;;;;;5097028;28;20048;-80
2024/01/17 12:51:42;;;;;;;15.88;7.72;;;;;;;;;;5096479;28;20040;-80
2024/01/17 12:54:08;;;;;;;19.77;8.43;;;;;;;;;;5115047;28;20388;-80
2024/01/17 12:56:35;;;;;;;20.58;8.18;;;;;;;;;;5097845;28;20048;-80
2024/01/17 12:59:01;;;;;;;17.42;8.98;;;;;;;;;;5096975;28;20090;-80
2024/01/17 13:01:30;;;;;;;18.40;8.13;;;;;;;;;;5098473;28;20062;-79
2024/01/17 13:04:00;;;;;;;20.45;9.15;;;;;;;;;;5116868;28;20099;-78
2024/01/17 13:06:26;;;;;;;23.30;8.75;;;;;;;;;;5117334;28;20048;-79
2024/01/17 13:08:52;;;;;;;15.82;7.68;;;;;;;;;;5115179;28;20108;-78
2024/01/17 13:11:18;;;;;;;19.40;8.05;;;;;;;;;;5114629;28;20480;-80
2024/01/17 13:13:46;;;;;;;17.42;8.25;;;;;;;;;;5115205;28;20054;-80
2024/01/17 13:16:14;;;;;;;;;;;;;;;;;;5115602;28;20083;-78
2024/01/17 13:18:41;;;;;;;17.38;7.95;;;;;;;;;;5096343;28;19924;-80
2024/01/17 13:21:17;;;;;;;17.67;8.18;;;;;;;;;;5096780;28;20050;-79
2024/01/17 13:23:43;;;;;;;16.40;8.10;;;;;;;;;;5079951;28;20463;-79
2024/01/17 13:26:09;;;;;;;21.25;8.90;;;;;;;;;;5115127;28;20384;-79
2024/01/17 13:28:36;;;;;;;25.27;10.43;;;;;;;;;;5114296;28;20141;-79
2024/01/17 13:31:03;;;;;;;18.65;9.10;;;;;;;;;;5060261;28;20048;-79
2024/01/17 13:33:29;;;;;;;20.02;8.95;;;;;;;;;;5076883;28;20044;-80
2024/01/17 13:35:56;;;;;;;17.73;8.77;;;;;;;;;;5094832;28;20048;-80
2024/01/17 13:38:25;;;;;;;20.75;8.10;;;;;;;;;;5077028;28;20048;-80
2024/01/17 13:40:52;;;;;;;19.65;8.32;;;;;;;;;;5094341;28;20403;-80
2024/01/17 13:43:18;;;;;;;19.13;8.40;;;;;;;;;;5094222;28;20056;-80
2024/01/17 13:45:44;;;;;;;19.38;8.63;;;;;;;;;;5094476;28;20109;-78
2024/01/17 13:48:11;;;;;;;17.42;7.93;;;;;;;;;;5060321;28;20062;-81
2024/01/17 13:50:37;;;;;;;20.10;9.00;;;;;;;;;;5094035;28;20122;-81
2024/01/17 13:53:28;;;;;;;24.40;8.80;;;;;;;;;;5094189;28;20055;-81
2024/01/17 13:55:54;;;;;;;18.73;8.52;;;;;;;;;;5076654;28;20047;-79
2024/01/17 13:58:22;;;;;;;18.65;8.55;;;;;;;;;;5079274;28;20052;-80
2024/01/17 14:00:48;;;;;;;20.67;8.13;;;;;;;;;;5104608;28;20195;-79
2024/01/17 14:03:14;;;;;;;17.88;9.38;;;;;;;;;;5086062;28;20056;-79
2024/01/17 14:05:40;;;;;;;17.58;8.60;;;;;;;;;;5094067;28;20495;-80
2024/01/17 14:08:07;;;;;;;17.80;8.48;;;;;;;;;;5059780;28;20067;-80
2024/01/17 14:10:34;;;;;;;19.27;8.32;;;;;;;;;;5093884;28;20091;-80
2024/01/17 14:13:01;;;;;;;21.67;9.02;;;;;;;;;;5093714;28;20044;-81
2024/01/17 14:15:27;;;;;;;19.75;8.13;;;;;;;;;;5075918;28;20449;-80
2024/01/17 14:17:53;;;;;;;20.77;8.32;;;;;;;;;;5059744;28;20040;-81
2024/01/17 14:20:20;;;;;;;19.90;7.97;;;;;;;;;;5094089;28;20054;-79
2024/01/17 14:22:51;;;;;;;19.77;8.33;;;;;;;;;;5075517;28;20066;-79
2024/01/17 14:25:17;;;;;;;15.93;8.05;;;;;;;;;;5062167;28;20056;-81
2024/01/17 14:27:44;;;;;;;21.38;8.43;;;;;;;;;;5098209;28;20047;-81